createdAt,value
2022-10-05T00:10:32.942Z,19.70
2022-10-05T00:40:35.779Z,19.97
2022-10-05T01:10:39.582Z,19.57
2022-10-05T01:40:42.306Z,17.63
2022-10-05T02:10:46.447Z,15.97
2022-10-05T02:40:49.183Z,14.07
2022-10-05T03:10:53.406Z,13.00
2022-10-05T03:40:56.825Z,11.00
2022-10-05T04:11:00.775Z,13.10
2022-10-05T04:41:03.592Z,18.20
2022-10-05T05:11:07.409Z,17.87
2022-10-05T05:41:10.123Z,10.53
2022-10-05T06:11:13.779Z,12.47
2022-10-05T06:41:16.516Z,10.77
2022-10-05T07:11:20.636Z,9.00
2022-10-05T07:41:23.317Z,7.10
2022-10-05T08:11:27.253Z,7.37
2022-10-05T08:41:30.342Z,6.03
2022-10-05T09:11:34.688Z,5.67
2022-10-05T09:41:37.699Z,6.75
2022-10-05T10:11:40.527Z,7.55
2022-10-05T10:41:44.041Z,7.40
2022-10-05T11:11:47.693Z,5.70
2022-10-05T11:41:51.084Z,5.67
2022-10-05T12:11:57.917Z,4.80
2022-10-05T12:42:00.873Z,5.43
2022-10-05T13:12:05.203Z,6.70
2022-10-05T14:10:33.765Z,7.80
2022-10-05T14:40:37.340Z,6.77
2022-10-05T15:10:40.085Z,7.00
2022-10-05T15:40:43.870Z,7.67
2022-10-05T16:10:46.930Z,14.53
2022-10-05T16:40:50.325Z,16.07
2022-10-05T17:10:53.739Z,10.97
2022-10-05T17:40:57.714Z,13.77
2022-10-05T18:11:01.306Z,11.30
2022-10-05T18:41:05.374Z,8.40
2022-10-05T19:11:08.768Z,10.40
2022-10-05T19:41:12.105Z,11.57
2022-10-05T20:11:15.471Z,12.07
2022-10-05T20:41:19.100Z,16.23
2022-10-05T21:11:22.970Z,13.93
2022-10-05T21:41:26.525Z,11.00
2022-10-05T22:11:31.045Z,14.13
2022-10-05T22:41:34.118Z,14.73
2022-10-05T23:11:38.973Z,13.90
2022-10-05T23:41:44.435Z,11.23
